Time;durP1;ratioP1;P1;durP2;ratioP2;P2;SDS_P1;SDS_P2;PMS_P1;PMS_P2;Temp;Humidity;BMP_temperature;BMP_pressure;BME280_temperature;BME280_humidity;BME280_pressure;Samples;Min_cycle;Max_cycle;Signal;HPM_P1;HPM_P2
2021/04/06 00:00:21;;;;;;;12.68;2.50;;;3.70;99.90;;;;;;5063159;28;20031;-70
2021/04/06 00:02:51;;;;;;;16.48;2.78;;;3.80;99.90;;;;;;5069128;28;20043;-70
2021/04/06 00:05:19;;;;;;;19.13;3.97;;;3.70;99.90;;;;;;5061300;28;20070;-69
2021/04/06 00:07:47;;;;;;;19.23;3.30;;;3.70;99.90;;;;;;5063808;28;20032;-69
2021/04/06 00:10:20;;;;;;;20.98;2.30;;;3.60;99.90;;;;;;5063451;28;20032;-70
2021/04/06 00:12:49;;;;;;;16.40;2.83;;;3.80;99.90;;;;;;5069355;28;20420;-69
2021/04/06 00:15:17;;;;;;;22.50;2.83;;;3.70;99.90;;;;;;5063506;28;20497;-70
2021/04/06 00:17:45;;;;;;;19.55;2.60;;;3.80;99.90;;;;;;5058155;28;20054;-70
2021/04/06 00:20:12;;;;;;;16.58;2.25;;;3.70;99.90;;;;;;5064577;28;20054;-70
2021/04/06 00:22:39;;;;;;;19.90;3.15;;;3.70;99.90;;;;;;5070917;28;20062;-69
2021/04/06 00:25:09;;;;;;;15.73;3.35;;;3.70;99.90;;;;;;5065494;28;20033;-70
2021/04/06 00:27:38;;;;;;;20.25;2.95;;;3.70;99.90;;;;;;5065038;28;20035;-70
2021/04/06 00:30:09;;;;;;;21.48;3.50;;;3.70;99.90;;;;;;5059084;28;20100;-70
2021/04/06 00:32:35;;;;;;;18.90;2.65;;;3.70;99.90;;;;;;5067896;28;20013;-69
2021/04/06 00:35:03;;;;;;;17.02;3.50;;;3.70;99.90;;;;;;5063654;28;20024;-70
2021/04/06 00:37:30;;;;;;;15.25;2.83;;;3.70;99.90;;;;;;5063309;28;20108;-70
2021/04/06 00:40:08;;;;;;;24.88;2.92;;;3.80;99.90;;;;;;5067190;28;20503;-70
2021/04/06 00:42:35;;;;;;;17.65;3.45;;;3.80;99.90;;;;;;5063954;28;20033;-70
2021/04/06 00:45:13;;;;;;;24.23;3.63;;;3.80;99.90;;;;;;5058251;28;20017;-70
2021/04/06 00:47:39;;;;;;;17.08;2.67;;;3.80;99.90;;;;;;5067179;28;20118;-70
2021/04/06 00:50:10;;;;;;;25.73;4.07;;;3.90;99.90;;;;;;5067004;28;20111;-70
2021/04/06 00:52:42;;;;;;;16.05;3.33;;;4.00;99.90;;;;;;5070775;28;20025;-69
2021/04/06 00:55:10;;;;;;;24.65;3.85;;;4.00;99.90;;;;;;5065192;28;20477;-71
2021/04/06 00:57:42;;;;;;;28.33;4.60;;;4.00;99.90;;;;;;5070140;28;20107;-70
2021/04/06 01:00:08;;;;;;;25.25;4.30;;;4.00;99.90;;;;;;5076508;28;20024;-70
2021/04/06 01:02:34;;;;;;;19.77;3.42;;;4.00;99.90;;;;;;5070929;28;20163;-70
2021/04/06 01:05:04;;;;;;;19.83;3.95;;;3.80;99.90;;;;;;5070435;28;20115;-71
2021/04/06 01:07:34;;;;;;;20.70;4.13;;;3.80;99.90;;;;;;5071440;28;20020;-70
2021/04/06 01:10:00;;;;;;;20.27;3.60;;;3.80;99.90;;;;;;5064035;28;20094;-71
2021/04/06 01:12:28;;;;;;;21.42;5.03;;;4.00;99.90;;;;;;5068475;28;20021;-71
2021/04/06 01:14:55;;;;;;;16.35;3.90;;;4.00;99.90;;;;;;5069803;28;20473;-71
2021/04/06 01:17:24;;;;;;;25.70;5.32;;;4.10;99.90;;;;;;5072928;28;20013;-71
2021/04/06 01:19:49;;;;;;;15.43;3.78;;;4.10;99.90;;;;;;5064273;28;20051;-71
2021/04/06 01:22:17;;;;;;;25.88;4.60;;;4.10;99.90;;;;;;5071365;28;20065;-72
2021/04/06 01:24:44;;;;;;;26.10;5.75;;;4.10;99.90;;;;;;5066644;28;20021;-71
2021/04/06 01:27:13;;;;;;;23.63;4.97;;;4.00;99.90;;;;;;5068691;28;20035;-71
2021/04/06 01:29:40;;;;;;;16.92;4.32;;;3.90;99.90;;;;;;5067355;28;20445;-71
2021/04/06 01:32:07;;;;;;;22.83;4.47;;;3.90;99.90;;;;;;5070114;28;20025;-71
2021/04/06 01:34:33;;;;;;;23.20;4.47;;;4.00;99.90;;;;;;5065233;28;20047;-71
2021/04/06 01:36:59;;;;;;;20.83;4.28;;;4.00;99.90;;;;;;5067252;28;20065;-71
2021/04/06 01:39:28;;;;;;;22.30;3.88;;;4.00;99.90;;;;;;5063426;28;20040;-71
2021/04/06 01:42:01;;;;;;;20.05;3.45;;;4.10;99.90;;;;;;5067206;28;20086;-71
2021/04/06 01:44:28;;;;;;;24.27;3.50;;;4.00;99.90;;;;;;5068024;28;20104;-71
2021/04/06 01:46:55;;;;;;;22.10;3.80;;;4.00;99.90;;;;;;5065523;28;20037;-71
2021/04/06 01:49:21;;;;;;;22.58;4.57;;;3.90;99.90;;;;;;5060878;28;20108;-71
2021/04/06 01:51:48;;;;;;;22.80;4.20;;;3.80;99.90;;;;;;5065647;28;20043;-71
2021/04/06 01:54:17;;;;;;;23.83;5.22;;;3.90;99.90;;;;;;5063865;28;20044;-71
2021/04/06 01:56:53;;;;;;;17.98;3.58;;;3.80;99.90;;;;;;5064630;28;20029;-71
2021/04/06 01:59:34;;;;;;;22.48;4.90;;;3.80;99.90;;;;;;5064179;28;20473;-71
2021/04/06 02:02:02;;;;;;;20.65;4.07;;;3.80;99.90;;;;;;5066363;28;20504;-72
2021/04/06 02:04:28;;;;;;;16.45;3.78;;;3.70;99.90;;;;;;5069668;28;20028;-71
2021/04/06 02:06:56;;;;;;;20.88;3.60;;;3.80;99.90;;;;;;5070520;28;20481;-72
2021/04/06 02:09:22;;;;;;;17.08;3.20;;;3.80;99.90;;;;;;5062689;28;20083;-71
2021/04/06 02:11:48;;;;;;;23.70;3.25;;;3.70;99.90;;;;;;5069844;28;20046;-72
2021/04/06 02:14:14;;;;;;;21.98;3.30;;;3.70;99.90;;;;;;5067383;28;20044;-72
2021/04/06 02:16:53;;;;;;;17.23;3.00;;;3.70;99.90;;;;;;5069255;28;20110;-72
2021/04/06 02:19:40;;;;;;;15.75;2.80;;;3.70;99.90;;;;;;5061888;28;20036;-72
2021/04/06 02:22:14;;;;;;;16.50;2.92;;;3.70;99.90;;;;;;5069121;28;20051;-71
2021/04/06 02:24:41;;;;;;;13.95;2.55;;;3.90;99.90;;;;;;5065344;28;20485;-72
2021/04/06 02:27:13;;;;;;;16.55;3.55;;;3.90;99.90;;;;;;5063450;28;20029;-72
2021/04/06 02:29:47;;;;;;;15.37;3.10;;;3.90;99.90;;;;;;5066259;28;20032;-73
2021/04/06 02:32:21;;;;;;;19.67;2.42;;;3.90;99.90;;;;;;5067478;28;20032;-71
2021/04/06 02:34:49;;;;;;;18.70;3.17;;;3.90;99.90;;;;;;5067472;28;20115;-73
2021/04/06 02:37:18;;;;;;;19.40;3.03;;;3.80;99.90;;;;;;5068257;28;20046;-74
2021/04/06 02:39:43;;;;;;;24.30;3.28;;;3.80;99.90;;;;;;5068996;28;20025;-72
2021/04/06 02:42:36;;;;;;;18.75;2.90;;;3.70;99.90;;;;;;5065021;28;20094;-71
2021/04/06 02:45:13;;;;;;;13.48;2.55;;;3.70;99.90;;;;;;5073254;28;20473;-72
2021/04/06 02:47:50;;;;;;;12.95;2.38;;;3.70;99.90;;;;;;5068870;28;20027;-72
2021/04/06 02:50:27;;;;;;;18.83;2.88;;;3.80;99.90;;;;;;5069331;28;20372;-72
2021/04/06 02:52:53;;;;;;;18.75;2.60;;;3.80;99.90;;;;;;5066024;28;20112;-72
2021/04/06 02:55:21;;;;;;;15.13;2.33;;;3.80;99.90;;;;;;5064956;28;20049;-72
2021/04/06 02:57:52;;;;;;;13.02;2.45;;;3.80;99.90;;;;;;5064973;28;20048;-72
2021/04/06 03:00:38;;;;;;;16.10;2.40;;;3.80;99.90;;;;;;5065622;28;20127;-71
2021/04/06 03:03:22;;;;;;;19.92;2.42;;;3.90;99.90;;;;;;5069114;28;20418;-73
2021/04/06 03:05:58;;;;;;;15.85;2.20;;;3.80;99.90;;;;;;5065801;28;20025;-73
2021/04/06 03:08:29;;;;;;;12.45;2.05;;;3.80;99.90;;;;;;5068224;28;20031;-72
2021/04/06 03:10:56;;;;;;;15.13;2.70;;;3.80;99.90;;;;;;5069036;28;20025;-72
2021/04/06 03:13:24;;;;;;;17.50;2.20;;;3.80;99.90;;;;;;5070040;28;20103;-72
2021/04/06 03:15:50;;;;;;;18.00;2.80;;;3.90;99.90;;;;;;5065513;28;20365;-72
2021/04/06 03:18:16;;;;;;;12.68;2.20;;;4.00;99.90;;;;;;5063008;28;20108;-72
2021/04/06 03:20:42;;;;;;;16.25;2.40;;;3.80;99.90;;;;;;5071684;28;20414;-73
2021/04/06 03:23:08;;;;;;;16.40;2.80;;;3.80;99.90;;;;;;5062925;28;20035;-73
2021/04/06 03:25:38;;;;;;;14.55;3.17;;;3.80;99.90;;;;;;5069093;28;20477;-73
2021/04/06 03:28:11;;;;;;;14.98;2.50;;;3.80;99.90;;;;;;5065973;28;20031;-72
2021/04/06 03:30:38;;;;;;;10.95;2.53;;;3.70;99.90;;;;;;5061860;28;20055;-71
2021/04/06 03:33:06;;;;;;;11.65;2.70;;;3.60;99.90;;;;;;5063766;28;20019;-72
2021/04/06 03:35:33;;;;;;;13.10;2.67;;;3.70;99.90;;;;;;5065206;28;20488;-73
2021/04/06 03:38:01;;;;;;;11.10;2.60;;;3.70;99.90;;;;;;5063592;28;20067;-73
2021/04/06 03:40:34;;;;;;;18.63;2.22;;;3.60;99.90;;;;;;5060624;28;20013;-71
2021/04/06 03:43:20;;;;;;;11.52;2.33;;;3.60;99.90;;;;;;5064987;28;20639;-73
2021/04/06 03:46:01;;;;;;;15.63;2.55;;;3.60;99.90;;;;;;5059795;28;20031;-72
2021/04/06 03:48:28;;;;;;;12.77;2.47;;;3.60;99.90;;;;;;5064295;28;20056;-72
2021/04/06 03:50:55;;;;;;;14.30;2.75;;;3.70;99.90;;;;;;5067019;28;20025;-72
2021/04/06 03:53:22;;;;;;;16.15;2.90;;;3.70;99.90;;;;;;5060215;28;20037;-72
2021/04/06 03:56:08;;;;;;;14.40;2.70;;;3.70;99.90;;;;;;5066194;28;20391;-72
2021/04/06 04:01:07;;;;;;;11.23;3.17;;;3.70;99.90;;;;;;5057921;28;20401;-70
2021/04/06 04:03:34;;;;;;;11.38;3.30;;;3.70;99.90;;;;;;5065125;28;20035;-72
2021/04/06 04:06:00;;;;;;;15.93;3.25;;;3.70;99.90;;;;;;5068433;28;20027;-72
2021/04/06 04:08:26;;;;;;;18.25;2.97;;;3.70;99.90;;;;;;5058111;28;20388;-72
2021/04/06 04:10:52;;;;;;;17.17;3.40;;;3.80;99.90;;;;;;5060781;28;20021;-73
2021/04/06 04:13:17;;;;;;;15.10;3.78;;;3.80;99.90;;;;;;5069399;28;20956;-72
2021/04/06 04:15:43;;;;;;;15.80;3.63;;;3.80;99.90;;;;;;5065453;28;20024;-72
2021/04/06 04:18:08;;;;;;;18.60;3.58;;;3.70;99.90;;;;;;5064623;28;20022;-73
2021/04/06 04:20:34;;;;;;;17.33;4.30;;;3.70;99.90;;;;;;5068099;28;20036;-73
2021/04/06 04:23:00;;;;;;;18.75;3.90;;;3.70;99.90;;;;;;5064912;28;20086;-72
2021/04/06 04:25:25;;;;;;;21.25;5.10;;;3.70;99.90;;;;;;5074720;28;20047;-72
2021/04/06 04:27:51;;;;;;;25.00;5.47;;;3.70;99.90;;;;;;5069524;28;20085;-72
2021/04/06 04:30:35;;;;;;;22.05;5.50;;;3.80;99.90;;;;;;5066642;28;20024;-72
2021/04/06 04:33:02;;;;;;;26.65;4.88;;;3.70;99.90;;;;;;5072720;28;20044;-73
2021/04/06 04:35:27;;;;;;;20.30;4.93;;;3.70;99.90;;;;;;5068413;28;20491;-72
2021/04/06 04:37:53;;;;;;;18.25;5.03;;;3.70;99.90;;;;;;5062167;28;20028;-73
2021/04/06 04:40:19;;;;;;;17.30;3.50;;;3.60;99.90;;;;;;5068690;28;20111;-72
2021/04/06 04:42:44;;;;;;;19.40;4.13;;;3.50;99.90;;;;;;5074037;28;20094;-72
2021/04/06 04:45:11;;;;;;;13.80;3.67;;;3.40;99.90;;;;;;5074032;28;20414;-73
2021/04/06 04:47:36;;;;;;;21.00;3.65;;;3.40;99.90;;;;;;5066472;28;20028;-72
2021/04/06 04:50:03;;;;;;;14.85;3.33;;;3.50;99.90;;;;;;5066285;28;20524;-72
2021/04/06 04:52:29;;;;;;;25.63;3.70;;;3.50;99.90;;;;;;5071716;28;20020;-73
2021/04/06 04:54:54;;;;;;;17.30;3.95;;;3.40;99.90;;;;;;5067173;28;20474;-72
2021/04/06 04:57:20;;;;;;;15.93;2.70;;;3.50;99.90;;;;;;5069830;28;20031;-72
2021/04/06 04:59:45;;;;;;;21.40;3.20;;;3.40;99.90;;;;;;5070847;28;20376;-73
2021/04/06 05:02:11;;;;;;;16.02;2.42;;;3.30;99.90;;;;;;5069889;28;20044;-72
2021/04/06 05:04:36;;;;;;;19.70;8.10;;;3.30;99.90;;;;;;5062673;28;20021;-72
2021/04/06 05:07:02;;;;;;;15.45;2.63;;;3.30;99.90;;;;;;5069072;28;20064;-72
2021/04/06 05:09:27;;;;;;;11.57;2.42;;;3.30;99.90;;;;;;5063249;28;20107;-72
2021/04/06 05:11:54;;;;;;;15.13;2.75;;;3.20;99.90;;;;;;5070836;28;20068;-72
2021/04/06 05:14:20;;;;;;;13.65;1.88;;;3.20;99.90;;;;;;5072934;28;20025;-69
2021/04/06 05:16:45;;;;;;;12.35;1.85;;;3.30;99.90;;;;;;5061238;28;20410;-72
2021/04/06 05:19:11;;;;;;;15.55;2.55;;;3.30;99.90;;;;;;5066871;28;20028;-72
2021/04/06 05:21:36;;;;;;;8.85;1.65;;;3.20;99.90;;;;;;5065798;28;20058;-72
2021/04/06 05:24:02;;;;;;;7.82;2.00;;;3.40;99.90;;;;;;5068633;28;20365;-72
2021/04/06 05:26:28;;;;;;;5.93;1.50;;;3.40;99.90;;;;;;5068559;28;20029;-72
2021/04/06 05:28:53;;;;;;;13.32;2.13;;;3.40;99.90;;;;;;5068509;28;20032;-72
2021/04/06 05:31:19;;;;;;;11.68;3.35;;;3.40;99.90;;;;;;5067632;28;20043;-72
2021/04/06 05:33:45;;;;;;;12.10;1.98;;;3.40;99.90;;;;;;5062839;28;20029;-72
2021/04/06 05:36:10;;;;;;;14.35;2.33;;;3.50;99.90;;;;;;5070503;28;20021;-72
2021/04/06 05:38:36;;;;;;;14.13;1.90;;;3.50;99.90;;;;;;5072755;28;20471;-72
2021/04/06 05:41:02;;;;;;;10.73;2.45;;;3.50;99.90;;;;;;5071911;28;20025;-72
2021/04/06 05:43:27;;;;;;;11.25;2.30;;;3.50;99.90;;;;;;5073498;28;20488;-72
2021/04/06 05:45:54;;;;;;;11.18;2.63;;;3.50;99.90;;;;;;5073275;28;20074;-72
2021/04/06 05:48:21;;;;;;;13.60;2.45;;;3.50;99.90;;;;;;5059788;28;20119;-71
2021/04/06 05:50:49;;;;;;;14.35;2.20;;;3.50;99.90;;;;;;5067613;28;20469;-72
2021/04/06 05:53:15;;;;;;;10.98;1.85;;;3.50;99.90;;;;;;5067592;28;20029;-69
2021/04/06 05:55:41;;;;;;;14.10;3.05;;;3.50;99.90;;;;;;5063783;28;20523;-70
2021/04/06 05:58:07;;;;;;;11.35;2.65;;;3.50;99.90;;;;;;5072452;28;20021;-72
2021/04/06 06:00:33;;;;;;;6.57;1.83;;;3.70;99.90;;;;;;5064626;28;20029;-70
2021/04/06 06:03:00;;;;;;;9.20;1.92;;;3.60;99.90;;;;;;5064645;28;20070;-69
2021/04/06 06:05:26;;;;;;;11.65;1.98;;;3.60;99.90;;;;;;5065821;28;20016;-70
2021/04/06 06:07:52;;;;;;;9.63;1.80;;;3.60;99.90;;;;;;5063712;28;20139;-70
2021/04/06 06:10:32;;;;;;;9.45;2.60;;;3.70;99.90;;;;;;5064464;28;20088;-69
2021/04/06 06:13:20;;;;;;;11.73;2.53;;;3.80;99.90;;;;;;5061626;28;20032;-69
2021/04/06 06:16:14;;;;;;;10.05;2.53;;;3.80;99.90;;;;;;5048973;28;21070;-72
2021/04/06 06:19:02;;;;;;;12.45;3.22;;;3.80;99.90;;;;;;5059544;28;20464;-71
2021/04/06 06:21:40;;;;;;;12.00;2.60;;;3.80;99.90;;;;;;5061739;28;20040;-70
2021/04/06 06:24:06;;;;;;;10.73;2.78;;;3.70;99.90;;;;;;5060964;28;20024;-72
2021/04/06 06:26:32;;;;;;;7.97;2.75;;;3.70;99.90;;;;;;5069478;28;20035;-70
2021/04/06 06:29:11;;;;;;;7.35;3.00;;;3.70;99.90;;;;;;5065089;28;20032;-70
2021/04/06 06:31:42;;;;;;;9.98;3.05;;;3.70;99.90;;;;;;5068073;28;20093;-72
2021/04/06 06:34:28;;;;;;;10.65;2.83;;;3.70;99.90;;;;;;5065769;28;20063;-72
2021/04/06 06:37:26;;;;;;;15.23;3.40;;;3.80;99.90;;;;;;5065047;28;20038;-72
2021/04/06 06:39:56;;;;;;;12.63;3.90;;;3.70;99.90;;;;;;5060291;28;20086;-72
2021/04/06 06:42:27;;;;;;;12.30;5.38;;;3.70;99.90;;;;;;5071493;28;20036;-71
2021/04/06 06:44:53;;;;;;;11.95;3.92;;;3.70;99.90;;;;;;5067960;28;20048;-71
2021/04/06 06:47:23;;;;;;;8.40;3.60;;;3.60;99.90;;;;;;5057749;28;20076;-70
2021/04/06 06:49:53;;;;;;;12.05;4.05;;;3.60;99.90;;;;;;5064505;28;20028;-71
2021/04/06 06:52:22;;;;;;;15.98;4.40;;;3.60;99.90;;;;;;5062150;28;20075;-70
2021/04/06 06:54:57;;;;;;;10.95;4.90;;;3.60;99.90;;;;;;5066228;28;20459;-70
2021/04/06 06:57:31;;;;;;;13.88;5.63;;;3.70;99.90;;;;;;5057841;28;20102;-71
2021/04/06 07:00:15;;;;;;;11.77;4.78;;;3.90;99.90;;;;;;5061192;28;20029;-71
2021/04/06 07:02:42;;;;;;;11.27;4.85;;;4.00;99.90;;;;;;5069715;28;20036;-70
2021/04/06 07:05:12;;;;;;;7.65;4.28;;;4.10;99.90;;;;;;5071392;28;20023;-70
2021/04/06 07:07:56;;;;;;;9.85;5.07;;;4.20;99.90;;;;;;5067498;28;20025;-70
2021/04/06 07:10:25;;;;;;;14.57;5.57;;;4.50;99.90;;;;;;5067989;28;20047;-69
2021/04/06 07:12:57;;;;;;;11.32;4.03;;;4.50;99.90;;;;;;5065200;28;20044;-69
2021/04/06 07:15:23;;;;;;;10.82;4.60;;;4.30;99.90;;;;;;5065502;28;20483;-69
2021/04/06 07:17:50;;;;;;;10.55;3.95;;;4.10;99.90;;;;;;5064670;28;20053;-69
2021/04/06 07:20:20;;;;;;;10.02;3.20;;;4.10;99.90;;;;;;5065021;28;20029;-69
2021/04/06 07:22:47;;;;;;;9.20;3.83;;;4.00;99.90;;;;;;5067910;28;20137;-69
2021/04/06 07:25:14;;;;;;;8.93;3.80;;;3.80;99.90;;;;;;5067317;28;20032;-70
2021/04/06 07:27:42;;;;;;;8.35;3.53;;;3.70;99.90;;;;;;5067305;28;20035;-70
2021/04/06 07:30:10;;;;;;;7.45;3.15;;;3.70;99.90;;;;;;5062374;28;20032;-69
2021/04/06 07:32:39;;;;;;;12.55;3.38;;;3.80;99.90;;;;;;5058186;28;20036;-69
2021/04/06 07:35:05;;;;;;;12.52;3.65;;;3.80;99.90;;;;;;5060172;28;20023;-69
2021/04/06 07:37:31;;;;;;;11.05;3.20;;;3.90;99.90;;;;;;5063079;28;20031;-69
2021/04/06 07:40:04;;;;;;;11.88;3.35;;;3.90;99.90;;;;;;5058877;28;20401;-69
2021/04/06 07:42:29;;;;;;;;;;;4.00;99.90;;;;;;5069238;28;20064;-69
2021/04/06 07:44:55;;;;;;;9.18;2.75;;;4.00;99.90;;;;;;5066337;28;19955;-70
2021/04/06 07:47:40;;;;;;;12.38;3.40;;;4.10;99.90;;;;;;5061628;28;20017;-69
2021/04/06 07:50:36;;;;;;;7.25;3.30;;;4.30;99.90;;;;;;5059985;28;20025;-69
2021/04/06 07:53:26;;;;;;;9.30;4.80;;;4.70;99.90;;;;;;5071213;28;20020;-69
2021/04/06 07:55:53;;;;;;;11.15;4.60;;;4.90;99.90;;;;;;5070390;28;20129;-68
2021/04/06 07:58:44;;;;;;;9.32;4.20;;;4.90;99.90;;;;;;5059951;28;20489;-68
2021/04/06 08:01:12;;;;;;;7.93;3.92;;;4.80;99.90;;;;;;5066209;28;20074;-69
2021/04/06 08:03:49;;;;;;;11.38;4.05;;;4.70;99.90;;;;;;5070090;28;20031;-69
2021/04/06 08:06:26;;;;;;;5.65;3.15;;;4.60;99.90;;;;;;5067834;28;20606;-69
2021/04/06 08:08:53;;;;;;;5.05;3.33;;;4.60;99.90;;;;;;5065898;28;20432;-69
2021/04/06 08:11:20;;;;;;;4.30;3.22;;;4.80;99.90;;;;;;5057195;28;20039;-69
2021/04/06 08:13:46;;;;;;;8.38;3.15;;;5.00;99.90;;;;;;5069270;28;20032;-69
2021/04/06 08:16:17;;;;;;;6.25;3.20;;;5.10;99.90;;;;;;5062331;28;20028;-69
2021/04/06 08:18:52;;;;;;;5.00;2.50;;;5.10;99.90;;;;;;5070073;28;20017;-69
2021/04/06 08:21:23;;;;;;;4.38;2.15;;;5.30;99.90;;;;;;5069831;28;20077;-70
2021/04/06 08:23:49;;;;;;;5.57;1.83;;;5.50;99.90;;;;;;5063157;28;20033;-69
2021/04/06 08:26:29;;;;;;;7.68;1.80;;;5.60;99.90;;;;;;5066472;28;20083;-70
2021/04/06 08:28:56;;;;;;;3.08;1.92;;;5.70;99.90;;;;;;5070794;28;20040;-69
2021/04/06 08:31:23;;;;;;;5.22;2.50;;;5.70;99.90;;;;;;5060426;28;20559;-69
2021/04/06 08:33:49;;;;;;;5.72;2.78;;;5.50;99.90;;;;;;5067696;28;20433;-70
2021/04/06 08:36:26;;;;;;;5.07;2.80;;;5.30;99.90;;;;;;5067801;28;20123;-69
2021/04/06 08:38:53;;;;;;;10.88;2.53;;;5.30;99.90;;;;;;5066343;28;20080;-69
2021/04/06 08:41:22;;;;;;;6.90;2.47;;;5.30;99.90;;;;;;5063375;28;20064;-69
2021/04/06 08:43:53;;;;;;;7.18;1.98;;;5.30;99.90;;;;;;5064900;28;20389;-70
2021/04/06 08:46:35;;;;;;;6.57;2.42;;;5.10;99.90;;;;;;5061399;28;20384;-69
2021/04/06 08:49:01;;;;;;;;;;;5.70;99.90;;;;;;5071045;28;20016;-69
2021/04/06 08:51:33;;;;;;;5.38;2.70;;;5.70;99.90;;;;;;5066793;28;19909;-70
2021/04/06 08:54:05;;;;;;;7.55;2.47;;;5.80;99.90;;;;;;5062029;28;20052;-70
2021/04/06 08:56:37;;;;;;;7.55;3.28;;;5.80;99.90;;;;;;5067095;28;20029;-70
2021/04/06 08:59:22;;;;;;;10.85;5.38;;;5.80;99.90;;;;;;5070324;28;20031;-70
2021/04/06 09:01:54;;;;;;;13.07;5.53;;;5.70;99.90;;;;;;5068470;28;20088;-70
2021/04/06 09:04:23;;;;;;;13.07;5.85;;;5.80;99.90;;;;;;5068059;28;20028;-70
2021/04/06 09:06:49;;;;;;;14.20;6.45;;;5.90;99.90;;;;;;5062249;28;20024;-72
2021/04/06 09:09:20;;;;;;;14.15;5.95;;;6.30;99.90;;;;;;5066441;28;20465;-71
2021/04/06 09:11:47;;;;;;;15.60;6.38;;;6.30;99.90;;;;;;5068656;28;20024;-70
2021/04/06 09:14:14;;;;;;;14.68;7.18;;;6.40;99.90;;;;;;5068625;28;20016;-70
2021/04/06 09:16:39;;;;;;;11.93;5.00;;;6.10;99.90;;;;;;5065863;28;20032;-71
2021/04/06 09:19:11;;;;;;;12.30;5.22;;;5.80;99.90;;;;;;5072279;28;20028;-71
2021/04/06 09:21:39;;;;;;;7.22;3.90;;;5.80;99.90;;;;;;5071246;28;20115;-71
2021/04/06 09:24:08;;;;;;;17.23;4.32;;;5.50;99.90;;;;;;5068766;28;20093;-72
2021/04/06 09:26:34;;;;;;;7.95;3.13;;;5.60;99.90;;;;;;5067684;28;20016;-71
2021/04/06 09:29:02;;;;;;;10.73;3.22;;;5.40;99.90;;;;;;5070763;28;20017;-71
2021/04/06 09:31:30;;;;;;;9.50;2.00;;;5.20;99.90;;;;;;5062304;28;20032;-71
2021/04/06 09:34:13;;;;;;;3.28;1.40;;;4.90;99.90;;;;;;5070476;28;20033;-72
2021/04/06 09:36:41;;;;;;;7.03;1.80;;;4.50;99.90;;;;;;5069778;28;20024;-71
2021/04/06 09:39:09;;;;;;;8.13;1.63;;;4.40;99.90;;;;;;5065259;28;20388;-71
2021/04/06 09:41:38;;;;;;;5.63;1.83;;;4.30;99.90;;;;;;5062870;28;20032;-70
2021/04/06 09:44:06;;;;;;;3.58;1.70;;;4.30;99.90;;;;;;5069044;28;20032;-70
2021/04/06 09:46:34;;;;;;;4.80;2.25;;;4.80;99.90;;;;;;5071125;28;20027;-70
2021/04/06 09:49:01;;;;;;;3.85;1.77;;;4.80;99.90;;;;;;5071582;28;20020;-70
2021/04/06 09:51:27;;;;;;;6.68;1.98;;;5.00;99.90;;;;;;5068543;28;20542;-70
2021/04/06 09:53:53;;;;;;;6.35;1.60;;;5.20;99.90;;;;;;5063686;28;20037;-70
2021/04/06 09:56:18;;;;;;;4.38;1.60;;;5.40;99.90;;;;;;5068305;28;20027;-70
2021/04/06 09:58:46;;;;;;;5.80;1.73;;;5.30;99.90;;;;;;5066507;28;20025;-70
2021/04/06 10:01:22;;;;;;;10.00;2.55;;;5.40;99.90;;;;;;5065199;28;20029;-70
2021/04/06 10:03:57;;;;;;;7.20;2.28;;;5.50;99.90;;;;;;5065788;28;20127;-70
2021/04/06 10:06:36;;;;;;;5.45;1.80;;;5.70;99.90;;;;;;5060948;28;20052;-70
2021/04/06 10:09:26;;;;;;;10.25;2.20;;;5.70;99.90;;;;;;5069314;28;20077;-70
2021/04/06 10:11:53;;;;;;;9.77;2.22;;;5.70;99.90;;;;;;5069353;28;20036;-70
2021/04/06 10:14:20;;;;;;;6.47;1.85;;;5.40;99.90;;;;;;5062188;28;20021;-70
2021/04/06 10:16:54;;;;;;;8.98;2.50;;;5.30;99.90;;;;;;5067338;28;20043;-70
2021/04/06 10:19:26;;;;;;;11.13;2.60;;;5.20;99.90;;;;;;5057710;28;20105;-70
2021/04/06 10:22:05;;;;;;;10.48;4.22;;;5.20;99.90;;;;;;5060538;28;20504;-70
2021/04/06 10:24:33;;;;;;;8.43;1.80;;;5.10;99.90;;;;;;5065986;28;20027;-69
2021/04/06 10:27:14;;;;;;;10.73;2.42;;;5.00;99.90;;;;;;5071670;28;20020;-70
2021/04/06 10:29:41;;;;;;;9.32;1.98;;;5.00;99.90;;;;;;5070527;28;20024;-69
2021/04/06 10:32:19;;;;;;;5.53;1.95;;;4.90;99.90;;;;;;5068116;28;21092;-70
2021/04/06 10:34:53;;;;;;;5.13;1.30;;;4.80;99.90;;;;;;5064973;28;20082;-70
2021/04/06 10:37:19;;;;;;;5.68;1.65;;;5.00;99.90;;;;;;5067539;28;20473;-69
2021/04/06 10:39:45;;;;;;;7.13;1.80;;;5.10;99.90;;;;;;5066802;28;20039;-69
2021/04/06 10:42:13;;;;;;;5.93;1.63;;;5.10;99.90;;;;;;5071964;28;20024;-69
2021/04/06 10:44:41;;;;;;;6.97;2.63;;;5.20;99.90;;;;;;5067578;28;20055;-69
2021/04/06 10:47:07;;;;;;;7.55;1.60;;;5.00;99.90;;;;;;5072797;28;20027;-69
2021/04/06 10:49:33;;;;;;;8.15;2.80;;;5.00;99.90;;;;;;5064845;28;20021;-69
2021/04/06 10:52:01;;;;;;;6.93;2.03;;;4.90;99.90;;;;;;5065957;28;20427;-69
2021/04/06 10:54:27;;;;;;;2.13;1.05;;;4.80;99.90;;;;;;5068940;28;20024;-69
2021/04/06 10:56:56;;;;;;;3.22;0.70;;;4.50;99.90;;;;;;5068942;28;20108;-70
2021/04/06 10:59:37;;;;;;;2.33;1.02;;;4.50;99.90;;;;;;5069474;28;20020;-69
2021/04/06 11:02:03;;;;;;;4.60;1.50;;;4.50;99.90;;;;;;5064406;28;20037;-70
2021/04/06 11:04:37;;;;;;;1.85;1.40;;;4.30;99.90;;;;;;5065762;28;20505;-69
2021/04/06 11:07:04;;;;;;;3.72;1.50;;;4.30;99.90;;;;;;5069191;28;20032;-70
2021/04/06 11:09:46;;;;;;;4.25;1.70;;;4.70;99.90;;;;;;5067148;28;20020;-69
2021/04/06 11:12:14;;;;;;;5.93;2.47;;;5.00;99.90;;;;;;5064601;28;20119;-70
2021/04/06 11:14:44;;;;;;;7.72;1.75;;;5.40;99.90;;;;;;5069280;28;20055;-70
2021/04/06 11:17:11;;;;;;;5.35;1.90;;;5.50;99.90;;;;;;5068350;28;20028;-70
2021/04/06 11:19:40;;;;;;;3.53;1.83;;;5.60;99.90;;;;;;5062716;28;20554;-69
2021/04/06 11:22:14;;;;;;;5.70;2.10;;;5.60;99.90;;;;;;5068680;28;20040;-70
2021/04/06 11:24:41;;;;;;;6.20;3.08;;;5.80;99.90;;;;;;5068238;28;20021;-70
2021/04/06 11:27:09;;;;;;;8.55;2.40;;;5.90;99.90;;;;;;5069493;28;20089;-69
2021/04/06 11:29:36;;;;;;;5.43;2.45;;;6.00;99.90;;;;;;5065652;28;20437;-69
2021/04/06 11:32:04;;;;;;;2.92;1.95;;;6.00;99.90;;;;;;5065696;28;20029;-69
2021/04/06 11:34:32;;;;;;;3.83;2.38;;;6.20;99.90;;;;;;5069722;28;20028;-69
2021/04/06 11:36:59;;;;;;;7.25;2.78;;;6.20;99.90;;;;;;5065776;28;20439;-69
2021/04/06 11:39:30;;;;;;;7.00;2.85;;;6.50;99.90;;;;;;5064490;28;20044;-69
2021/04/06 11:41:57;;;;;;;5.38;2.25;;;6.50;99.90;;;;;;5061570;28;20119;-71
2021/04/06 11:44:22;;;;;;;6.82;2.08;;;6.20;99.90;;;;;;5060354;28;20142;-70
2021/04/06 11:46:48;;;;;;;4.35;1.55;;;6.40;99.90;;;;;;5066523;28;20028;-70
2021/04/06 11:49:16;;;;;;;4.45;2.25;;;6.20;99.90;;;;;;5059966;28;20460;-69
2021/04/06 11:51:42;;;;;;;7.35;2.42;;;6.40;99.90;;;;;;5060145;28;20024;-69
2021/04/06 11:54:10;;;;;;;6.55;2.20;;;6.50;99.90;;;;;;5067768;28;20066;-68
2021/04/06 11:56:35;;;;;;;6.85;3.00;;;6.60;99.90;;;;;;5060706;28;20132;-68
2021/04/06 11:59:01;;;;;;;7.75;2.80;;;6.60;99.90;;;;;;5061709;28;20095;-69
2021/04/06 12:01:28;;;;;;;4.63;1.80;;;6.70;99.90;;;;;;5066845;28;20044;-68
2021/04/06 12:03:54;;;;;;;3.78;1.60;;;6.70;99.90;;;;;;5067830;28;20043;-68
2021/04/06 12:06:19;;;;;;;3.85;1.90;;;6.70;99.90;;;;;;5065608;28;20560;-68
2021/04/06 12:08:45;;;;;;;7.57;1.80;;;6.60;99.90;;;;;;5065677;28;20484;-68
2021/04/06 12:11:11;;;;;;;8.15;1.98;;;6.20;99.90;;;;;;5066091;28;20024;-68
2021/04/06 12:13:36;;;;;;;5.90;1.80;;;5.90;99.90;;;;;;5065355;28;20060;-68
2021/04/06 12:16:04;;;;;;;7.10;1.88;;;5.80;99.90;;;;;;5068844;28;20033;-69
2021/04/06 12:18:30;;;;;;;6.88;1.58;;;5.70;99.90;;;;;;5067323;28;20033;-68
2021/04/06 12:20:56;;;;;;;5.93;1.42;;;5.60;99.90;;;;;;5064971;28;20636;-69
2021/04/06 12:23:21;;;;;;;2.70;1.30;;;5.40;99.90;;;;;;5057771;28;20174;-69
2021/04/06 12:25:47;;;;;;;4.75;1.70;;;5.20;99.90;;;;;;5063552;28;20038;-68
2021/04/06 12:28:12;;;;;;;4.57;1.50;;;4.90;99.90;;;;;;5068874;28;20037;-68
2021/04/06 12:30:38;;;;;;;6.75;1.50;;;4.80;99.90;;;;;;5066720;28;20384;-69
2021/04/06 12:33:04;;;;;;;3.22;1.10;;;4.90;99.90;;;;;;5070564;28;20052;-68
2021/04/06 12:35:30;;;;;;;4.47;1.50;;;4.90;99.90;;;;;;5066649;28;20025;-68
2021/04/06 12:37:57;;;;;;;3.67;1.25;;;4.90;99.90;;;;;;5066278;28;20507;-68
2021/04/06 12:40:23;;;;;;;2.58;1.30;;;4.80;99.90;;;;;;5067611;28;20020;-68
2021/04/06 12:42:48;;;;;;;3.13;1.50;;;4.80;99.90;;;;;;5073587;28;20485;-68
2021/04/06 12:45:16;;;;;;;4.78;1.27;;;4.70;99.90;;;;;;5072224;28;20023;-68
2021/04/06 12:47:42;;;;;;;2.80;0.80;;;4.60;99.90;;;;;;5067703;28;20098;-68
2021/04/06 12:50:08;;;;;;;2.53;1.88;;;4.70;99.90;;;;;;5070390;28;20451;-68
2021/04/06 12:52:34;;;;;;;2.53;1.67;;;4.80;99.90;;;;;;5074587;28;20044;-68
2021/04/06 12:55:00;;;;;;;1.60;1.00;;;4.80;99.90;;;;;;5073978;28;20121;-68
2021/04/06 12:57:25;;;;;;;2.58;1.20;;;4.50;99.90;;;;;;5070985;28;20020;-68
2021/04/06 12:59:55;;;;;;;2.67;2.25;;;4.70;99.90;;;;;;5067043;28;20052;-68
2021/04/06 13:02:22;;;;;;;4.03;2.13;;;4.70;99.90;;;;;;5072435;28;20033;-68
2021/04/06 13:04:49;;;;;;;3.83;1.90;;;5.00;99.90;;;;;;5075892;28;20028;-68